^^
Station Historical Data
Daily Summary for January 5, 2018 Units:  Both    English   Metric
« Previous Day
Next Day »
Daily Weekly Monthly Yearly Custom
  High: Low: Average:
Temperature: TemperatureF °F /  -17.8 °C 73.2 °F /  22.9 °C 80.9 °F /  27.2 °C
Dew Point: DewpointF °F /  -17.8 °C 35.1 °F /  1.7 °C 39.6 °F /  4.2 °C
Humidity: Humidity% 18% 23%
Wind Speed: WindSpeedMPHmph /  0km/h - -27.1mph /  -43.6km/h
Wind Gust: WindSpeedGustMPHmph /  0km/h - -
Wind- -
Pressure: PressureIn in /  0 hPa 30.11 in /  1019.5 hPa -
Precipitation: 0.00 in /  0 mm    
Historical Graphs
 
 
Tabular Data for January 5, 2018
Time Temperature Dew Point Pressure Wind Wind Speed Wind Gust Humidity Rainfall Rate (Hourly) solar Conditions
TemperatureF °F /  -17.8 °C DewpointF °F /  -17.8 °C PressureInin /  0hPa Calm     Humidity% HourlyPrecipInin /  0mm SoftwareType W/m2 Conditions
09:00 73.2 °F /  22.9 °C 43.2 °F /  6.2 °C 30.29in /  1025.6hPa North -999.9mph /  -1609.1km/h -999.0mph /  -1607.7km/h 34% 0.00in /  0mm meteobridge W/m2
09:06 73.6 °F /  23.1 °C 43.5 °F /  6.4 °C 30.29in /  1025.6hPa East 2.9mph /  4.7km/h 14.0mph /  22.5km/h 34% 0.00in /  0mm meteobridge W/m2
09:12 73.8 °F /  23.2 °C 42.8 °F /  6 °C 30.29in /  1025.6hPa NE 6.9mph /  11.1km/h 14.0mph /  22.5km/h 33% 0.00in /  0mm meteobridge W/m2
09:18 73.9 °F /  23.3 °C 42.3 °F /  5.7 °C 30.29in /  1025.6hPa NNE 13.0mph /  20.9km/h 13.0mph /  20.9km/h 32% 0.00in /  0mm meteobridge W/m2
09:22 73.9 °F /  23.3 °C 42.3 °F /  5.7 °C 30.29in /  1025.6hPa NNE 13.0mph /  20.9km/h 17.0mph /  27.4km/h 32% 0.00in /  0mm meteobridge W/m2
09:28 73.8 °F /  23.2 °C 42.8 °F /  6 °C 30.28in /  1025.3hPa NE 8.9mph /  14.3km/h 11.0mph /  17.7km/h 33% 0.00in /  0mm meteobridge W/m2
09:34 74.7 °F /  23.7 °C 42.8 °F /  6 °C 30.29in /  1025.6hPa NNE 6.9mph /  11.1km/h 12.0mph /  19.3km/h 32% 0.00in /  0mm meteobridge W/m2
09:40 75.4 °F /  24.1 °C 43.5 °F /  6.4 °C 30.29in /  1025.6hPa North 4.9mph /  7.9km/h 9.0mph /  14.5km/h 32% 0.00in /  0mm meteobridge W/m2
09:47 75.7 °F /  24.3 °C 43.0 °F /  6.1 °C 30.29in /  1025.6hPa NE 8.9mph /  14.3km/h 10.0mph /  16.1km/h 31% 0.00in /  0mm meteobridge W/m2
09:53 76.5 °F /  24.7 °C 43.5 °F /  6.4 °C 30.29in /  1025.6hPa NNE 4.0mph /  6.4km/h 10.0mph /  16.1km/h 31% 0.00in /  0mm meteobridge W/m2
09:59 76.8 °F /  24.9 °C 43.9 °F /  6.6 °C 30.29in /  1025.6hPa SSE 4.9mph /  7.9km/h 13.0mph /  20.9km/h 31% 0.00in /  0mm meteobridge W/m2
10:01 76.6 °F /  24.8 °C 42.8 °F /  6 °C 30.29in /  1025.6hPa SSW 0.9mph /  1.4km/h 9.0mph /  14.5km/h 30% 0.00in /  0mm meteobridge W/m2
10:09 77.2 °F /  25.1 °C 43.3 °F /  6.3 °C 30.29in /  1025.6hPa ENE 4.9mph /  7.9km/h 10.0mph /  16.1km/h 30% 0.00in /  0mm meteobridge W/m2
10:17 76.8 °F /  24.9 °C 43.0 °F /  6.1 °C 30.28in /  1025.3hPa NNE 11.0mph /  17.7km/h 11.0mph /  17.7km/h 30% 0.00in /  0mm meteobridge W/m2
10:23 77.0 °F /  25 °C 42.3 °F /  5.7 °C 30.29in /  1025.6hPa NE 6.9mph /  11.1km/h 15.0mph /  24.1km/h 29% 0.00in /  0mm meteobridge W/m2
10:29 77.0 °F /  25 °C 43.2 °F /  6.2 °C 30.28in /  1025.3hPa SE 0.9mph /  1.4km/h 7.0mph /  11.3km/h 30% 0.00in /  0mm meteobridge W/m2
10:36 77.7 °F /  25.4 °C 43.0 °F /  6.1 °C 30.28in /  1025.3hPa NE 6.9mph /  11.1km/h 8.0mph /  12.9km/h 29% 0.00in /  0mm meteobridge W/m2
10:44 79.2 °F /  26.2 °C 44.2 °F /  6.8 °C 30.28in /  1025.3hPa ESE 4.9mph /  7.9km/h 14.0mph /  22.5km/h 29% 0.00in /  0mm meteobridge W/m2
10:52 80.1 °F /  26.7 °C 44.1 °F /  6.7 °C 30.28in /  1025.3hPa East 6.0mph /  9.7km/h 6.0mph /  9.7km/h 28% 0.00in /  0mm meteobridge W/m2
10:58 80.6 °F /  27 °C 43.5 °F /  6.4 °C 30.27in /  1024.9hPa ENE 2.9mph /  4.7km/h 11.0mph /  17.7km/h 27% 0.00in /  0mm meteobridge W/m2
11:04 80.2 °F /  26.8 °C 43.2 °F /  6.2 °C 30.27in /  1024.9hPa NNE 12.1mph /  19.5km/h 17.0mph /  27.4km/h 27% 0.00in /  0mm meteobridge W/m2
11:08 78.8 °F /  26 °C 42.1 °F /  5.6 °C 30.27in /  1024.9hPa NNE 6.0mph /  9.7km/h 20.0mph /  32.2km/h 27% 0.00in /  0mm meteobridge W/m2
11:10 78.6 °F /  25.9 °C 41.9 °F /  5.5 °C 30.27in /  1024.9hPa ENE 0.9mph /  1.4km/h 7.0mph /  11.3km/h 27% 0.00in /  0mm meteobridge W/m2
11:16 79.0 °F /  26.1 °C 42.1 °F /  5.6 °C 30.27in /  1024.9hPa NNE 10.1mph /  16.3km/h 10.1mph /  16.3km/h 27% 0.00in /  0mm meteobridge W/m2
11:30 79.7 °F /  26.5 °C 40.8 °F /  4.9 °C 30.26in /  1024.6hPa NNE 2.0mph /  3.2km/h 11.0mph /  17.7km/h 25% 0.00in /  0mm meteobridge W/m2
11:38 80.1 °F /  26.7 °C 41.0 °F /  5 °C 30.27in /  1024.9hPa ESE 4.9mph /  7.9km/h 5.0mph /  8km/h 25% 0.00in /  0mm meteobridge W/m2
11:44 80.8 °F /  27.1 °C 41.7 °F /  5.4 °C 30.26in /  1024.6hPa ENE 10.1mph /  16.3km/h 15.0mph /  24.1km/h 25% 0.00in /  0mm meteobridge W/m2
11:50 81.5 °F /  27.5 °C 41.2 °F /  5.1 °C 30.26in /  1024.6hPa NNE 2.9mph /  4.7km/h 11.0mph /  17.7km/h 24% 0.00in /  0mm meteobridge W/m2
11:52 81.7 °F /  27.6 °C 41.4 °F /  5.2 °C 30.25in /  1024.3hPa NE 2.0mph /  3.2km/h 4.0mph /  6.4km/h 24% 0.00in /  0mm meteobridge W/m2
11:58 81.9 °F /  27.7 °C 40.5 °F /  4.7 °C 30.26in /  1024.6hPa NNE 11.0mph /  17.7km/h 18.0mph /  29km/h 23% 0.00in /  0mm meteobridge W/m2
12:05 81.1 °F /  27.3 °C 41.0 °F /  5 °C 30.25in /  1024.3hPa North 10.1mph /  16.3km/h 11.0mph /  17.7km/h 24% 0.00in /  0mm meteobridge W/m2
12:11 81.7 °F /  27.6 °C 41.4 °F /  5.2 °C 30.25in /  1024.3hPa SSE 4.9mph /  7.9km/h 6.0mph /  9.7km/h 24% 0.00in /  0mm meteobridge W/m2
12:17 82.8 °F /  28.2 °C 42.3 °F /  5.7 °C 30.25in /  1024.3hPa SE 2.9mph /  4.7km/h 5.0mph /  8km/h 24% 0.00in /  0mm meteobridge W/m2
12:23 82.9 °F /  28.3 °C 40.1 °F /  4.5 °C 30.24in /  1023.9hPa NNE 15.0mph /  24.1km/h 15.0mph /  24.1km/h 22% 0.00in /  0mm meteobridge W/m2
12:29 82.0 °F /  27.8 °C 39.4 °F /  4.1 °C 30.24in /  1023.9hPa NNW 4.0mph /  6.4km/h 18.0mph /  29km/h 22% 0.00in /  0mm meteobridge W/m2
12:37 82.2 °F /  27.9 °C 40.8 °F /  4.9 °C 30.24in /  1023.9hPa North 4.9mph /  7.9km/h 9.0mph /  14.5km/h 23% 0.00in /  0mm meteobridge W/m2
12:41 83.1 °F /  28.4 °C 40.3 °F /  4.6 °C 30.24in /  1023.9hPa NNE 6.9mph /  11.1km/h 20.0mph /  32.2km/h 22% 0.00in /  0mm meteobridge W/m2
12:51 83.1 °F /  28.4 °C 40.3 °F /  4.6 °C 30.23in /  1023.6hPa NE 2.0mph /  3.2km/h 12.0mph /  19.3km/h 22% 0.00in /  0mm meteobridge W/m2
12:57 83.3 °F /  28.5 °C 40.5 °F /  4.7 °C 30.23in /  1023.6hPa North 13.0mph /  20.9km/h 13.0mph /  20.9km/h 22% 0.00in /  0mm meteobridge W/m2
13:03 83.3 °F /  28.5 °C 40.5 °F /  4.7 °C 30.23in /  1023.6hPa North 16.1mph /  25.9km/h 17.0mph /  27.4km/h 22% 0.00in /  0mm meteobridge W/m2
13:12 84.0 °F /  28.9 °C 41.0 °F /  5 °C 30.23in /  1023.6hPa NE 8.1mph /  13km/h 15.0mph /  24.1km/h 22% 0.00in /  0mm meteobridge W/m2
13:32 83.1 °F /  28.4 °C 40.3 °F /  4.6 °C 30.22in /  1023.2hPa NNE 11.0mph /  17.7km/h 16.0mph /  25.7km/h 22% 0.00in /  0mm meteobridge W/m2
13:38 84.0 °F /  28.9 °C 39.9 °F /  4.4 °C 30.22in /  1023.2hPa NW 14.1mph /  22.7km/h 18.0mph /  29km/h 21% 0.00in /  0mm meteobridge W/m2
13:46 84.6 °F /  29.2 °C 40.3 °F /  4.6 °C 30.22in /  1023.2hPa North 10.1mph /  16.3km/h 19.0mph /  30.6km/h 21% 0.00in /  0mm meteobridge W/m2
13:54 84.0 °F /  28.9 °C 39.9 °F /  4.4 °C 30.21in /  1022.9hPa North 12.1mph /  19.5km/h 18.0mph /  29km/h 21% 0.00in /  0mm meteobridge W/m2
14:00 83.8 °F /  28.8 °C 39.7 °F /  4.3 °C 30.20in /  1022.6hPa North 15.0mph /  24.1km/h 17.0mph /  27.4km/h 21% 0.00in /  0mm meteobridge W/m2
14:06 84.6 °F /  29.2 °C 40.3 °F /  4.6 °C 30.21in /  1022.9hPa North 4.0mph /  6.4km/h 14.0mph /  22.5km/h 21% 0.00in /  0mm meteobridge W/m2
14:15 83.1 °F /  28.4 °C 39.2 °F /  4 °C 30.20in /  1022.6hPa NNW 8.9mph /  14.3km/h 17.0mph /  27.4km/h 21% 0.00in /  0mm meteobridge W/m2
14:25 84.7 °F /  29.3 °C 39.2 °F /  4 °C 30.20in /  1022.6hPa North 12.1mph /  19.5km/h 18.0mph /  29km/h 20% 0.00in /  0mm meteobridge W/m2
14:33 84.4 °F /  29.1 °C 39.0 °F /  3.9 °C 30.19in /  1022.2hPa NNW 2.9mph /  4.7km/h 10.0mph /  16.1km/h 20% 0.00in /  0mm meteobridge W/m2
14:47 84.2 °F /  29 °C 38.8 °F /  3.8 °C 30.19in /  1022.2hPa North 8.9mph /  14.3km/h 22.0mph /  35.4km/h 20% 0.00in /  0mm meteobridge W/m2
14:53 83.5 °F /  28.6 °C 39.4 °F /  4.1 °C 30.19in /  1022.2hPa NNE 10.1mph /  16.3km/h 13.0mph /  20.9km/h 21% 0.00in /  0mm meteobridge W/m2
15:00 84.4 °F /  29.1 °C 39.0 °F /  3.9 °C 30.18in /  1021.9hPa North 8.1mph /  13km/h 8.1mph /  13km/h 20% 0.00in /  0mm meteobridge W/m2
15:06 84.7 °F /  29.3 °C 39.2 °F /  4 °C 30.18in /  1021.9hPa North 12.1mph /  19.5km/h 17.0mph /  27.4km/h 20% 0.00in /  0mm meteobridge W/m2
15:12 84.4 °F /  29.1 °C 39.0 °F /  3.9 °C 30.18in /  1021.9hPa North 11.0mph /  17.7km/h 15.0mph /  24.1km/h 20% 0.00in /  0mm meteobridge W/m2
15:20 84.7 °F /  29.3 °C 39.2 °F /  4 °C 30.17in /  1021.6hPa NE 4.0mph /  6.4km/h 16.0mph /  25.7km/h 20% 0.00in /  0mm meteobridge W/m2
15:26 84.9 °F /  29.4 °C 39.4 °F /  4.1 °C 30.16in /  1021.2hPa NW 6.0mph /  9.7km/h 10.0mph /  16.1km/h 20% 0.00in /  0mm meteobridge W/m2
15:32 84.4 °F /  29.1 °C 39.0 °F /  3.9 °C 30.16in /  1021.2hPa NNE 6.9mph /  11.1km/h 15.0mph /  24.1km/h 20% 0.00in /  0mm meteobridge W/m2
15:38 82.9 °F /  28.3 °C 39.0 °F /  3.9 °C 30.16in /  1021.2hPa North 6.9mph /  11.1km/h 16.0mph /  25.7km/h 21% 0.00in /  0mm meteobridge W/m2
15:44 84.0 °F /  28.9 °C 39.9 °F /  4.4 °C 30.16in /  1021.2hPa NNE 11.0mph /  17.7km/h 13.0mph /  20.9km/h 21% 0.00in /  0mm meteobridge W/m2
15:50 84.2 °F /  29 °C 38.8 °F /  3.8 °C 30.16in /  1021.2hPa North 11.0mph /  17.7km/h 11.0mph /  17.7km/h 20% 0.00in /  0mm meteobridge W/m2
16:01 84.2 °F /  29 °C 38.8 °F /  3.8 °C 30.16in /  1021.2hPa North 4.9mph /  7.9km/h 11.0mph /  17.7km/h 20% 0.00in /  0mm meteobridge W/m2
16:07 84.9 °F /  29.4 °C 39.4 °F /  4.1 °C 30.16in /  1021.2hPa NNE 4.0mph /  6.4km/h 17.0mph /  27.4km/h 20% 0.00in /  0mm meteobridge W/m2
16:15 86.9 °F /  30.5 °C 41.0 °F /  5 °C 30.15in /  1020.9hPa SE 2.9mph /  4.7km/h 5.0mph /  8km/h 20% 0.00in /  0mm meteobridge W/m2
16:21 86.5 °F /  30.3 °C 39.4 °F /  4.1 °C 30.15in /  1020.9hPa North 16.1mph /  25.9km/h 20.0mph /  32.2km/h 19% 0.00in /  0mm meteobridge W/m2
16:27 84.7 °F /  29.3 °C 39.2 °F /  4 °C 30.15in /  1020.9hPa North 2.9mph /  4.7km/h 8.0mph /  12.9km/h 20% 0.00in /  0mm meteobridge W/m2
16:35 85.8 °F /  29.9 °C 38.8 °F /  3.8 °C 30.14in /  1020.5hPa North 2.0mph /  3.2km/h 7.0mph /  11.3km/h 19% 0.00in /  0mm meteobridge W/m2
16:58 86.5 °F /  30.3 °C 37.9 °F /  3.3 °C 30.13in /  1020.2hPa North 11.0mph /  17.7km/h 13.0mph /  20.9km/h 18% 0.00in /  0mm meteobridge W/m2
17:04 86.2 °F /  30.1 °C 39.0 °F /  3.9 °C 30.13in /  1020.2hPa NNW 12.1mph /  19.5km/h 13.0mph /  20.9km/h 19% 0.00in /  0mm meteobridge W/m2
17:10 85.8 °F /  29.9 °C 38.8 °F /  3.8 °C 30.13in /  1020.2hPa NNW 13.0mph /  20.9km/h 15.0mph /  24.1km/h 19% 0.00in /  0mm meteobridge W/m2
17:16 85.5 °F /  29.7 °C 37.0 °F /  2.8 °C 30.12in /  1019.9hPa North 2.9mph /  4.7km/h 5.0mph /  8km/h 18% 0.00in /  0mm meteobridge W/m2
17:26 85.5 °F /  29.7 °C 37.0 °F /  2.8 °C 30.12in /  1019.9hPa North 6.9mph /  11.1km/h 16.0mph /  25.7km/h 18% 0.00in /  0mm meteobridge W/m2
17:37 84.7 °F /  29.3 °C 37.9 °F /  3.3 °C 30.13in /  1020.2hPa NNE 6.0mph /  9.7km/h 13.0mph /  20.9km/h 19% 0.00in /  0mm meteobridge W/m2
17:43 85.1 °F /  29.5 °C 36.9 °F /  2.7 °C 30.13in /  1020.2hPa North 11.0mph /  17.7km/h 15.0mph /  24.1km/h 18% 0.00in /  0mm meteobridge W/m2
17:47 84.7 °F /  29.3 °C 36.5 °F /  2.5 °C 30.12in /  1019.9hPa NNE 0.9mph /  1.4km/h 6.0mph /  9.7km/h 18% 0.00in /  0mm meteobridge W/m2
17:53 85.6 °F /  29.8 °C 37.2 °F /  2.9 °C 30.12in /  1019.9hPa SE 2.9mph /  4.7km/h 6.0mph /  9.7km/h 18% 0.00in /  0mm meteobridge W/m2
17:59 86.5 °F /  30.3 °C 37.9 °F /  3.3 °C 30.12in /  1019.9hPa North 10.1mph /  16.3km/h 13.0mph /  20.9km/h 18% 0.00in /  0mm meteobridge W/m2
18:15 84.9 °F /  29.4 °C 36.7 °F /  2.6 °C 30.11in /  1019.5hPa North 10.1mph /  16.3km/h 11.0mph /  17.7km/h 18% 0.00in /  0mm meteobridge W/m2
18:21 85.1 °F /  29.5 °C 36.9 °F /  2.7 °C 30.11in /  1019.5hPa North 4.9mph /  7.9km/h 10.0mph /  16.1km/h 18% 0.00in /  0mm meteobridge W/m2
18:27 84.4 °F /  29.1 °C 36.3 °F /  2.4 °C 30.11in /  1019.5hPa North 8.9mph /  14.3km/h 15.0mph /  24.1km/h 18% 0.00in /  0mm meteobridge W/m2
18:34 83.7 °F /  28.7 °C 35.6 °F /  2 °C 30.11in /  1019.5hPa NNW 6.0mph /  9.7km/h 13.0mph /  20.9km/h 18% 0.00in /  0mm meteobridge W/m2
18:42 82.9 °F /  28.3 °C 35.1 °F /  1.7 °C 30.11in /  1019.5hPa North 4.9mph /  7.9km/h 9.0mph /  14.5km/h 18% 0.00in /  0mm meteobridge W/m2
18:48 82.6 °F /  28.1 °C 36.1 °F /  2.3 °C 30.12in /  1019.9hPa North 12.1mph /  19.5km/h 13.0mph /  20.9km/h 19% 0.00in /  0mm meteobridge W/m2
18:56 81.9 °F /  27.7 °C 35.6 °F /  2 °C 30.12in /  1019.9hPa North 2.9mph /  4.7km/h 11.0mph /  17.7km/h 19% 0.00in /  0mm meteobridge W/m2
19:03 81.9 °F /  27.7 °C 35.6 °F /  2 °C 30.11in /  1019.5hPa North 2.9mph /  4.7km/h -999.0mph /  -1607.7km/h 19% 0.00in /  0mm meteobridge W/m2
19:16 81.9 °F /  27.7 °C 35.6 °F /  2 °C 30.12in /  1019.9hPa North -999.9mph /  -1609.1km/h -999.0mph /  -1607.7km/h 19% 0.00in /  0mm meteobridge W/m2
19:24 81.9 °F /  27.7 °C 35.6 °F /  2 °C 30.12in /  1019.9hPa North -999.9mph /  -1609.1km/h -999.0mph /  -1607.7km/h 19% 0.00in /  0mm meteobridge W/m2
Regenstein, Windhoek, Namibia
Compliments of Weather Underground - 2.5 mb